Time,TemperatureF,DewpointF,PressureIn,WindDirection,WindDirectionDegrees,WindSpeedMPH,WindSpeedGustMPH,Humidity,HourlyPrecipIn,Conditions,Clouds,dailyrainin,SoftwareType,DateUTC
2013-01-02 00:05:00,13.8,8.2,30.02,WNW,296,0.0,21.0,78,0.00,,,0.00,Wunderground v.1.15,2013-01-02 05:05:00,
2013-01-02 00:09:00,13.7,8.1,30.01,WNW,296,0.0,21.0,78,0.00,,,0.00,Wunderground v.1.15,2013-01-02 05:09:00,
2013-01-02 00:15:00,13.5,7.9,30.02,WNW,296,0.0,21.0,78,0.00,,,0.00,Wunderground v.1.15,2013-01-02 05:15:00,
2013-01-02 00:20:00,13.3,8.0,30.02,WNW,296,0.0,21.0,79,0.00,,,0.00,Wunderground v.1.15,2013-01-02 05:20:00,
2013-01-02 00:25:00,13.1,7.8,30.02,WNW,296,0.0,21.0,79,0.00,,,0.00,Wunderground v.1.15,2013-01-02 05:25:00,
2013-01-02 00:34:00,12.9,7.9,30.01,WNW,296,0.0,21.0,80,0.00,,,0.00,Wunderground v.1.15,2013-01-02 05:34:00,
2013-01-02 00:39:00,12.8,7.8,30.02,WNW,296,0.0,21.0,80,0.00,,,0.00,Wunderground v.1.15,2013-01-02 05:39:00,
2013-01-02 00:44:00,12.8,8.1,30.02,WNW,286,0.0,21.0,81,0.00,,,0.00,Wunderground v.1.15,2013-01-02 05:44:00,
2013-01-02 00:50:00,13.0,8.0,30.01,WNW,286,0.0,21.0,80,0.00,,,0.00,Wunderground v.1.15,2013-01-02 05:50:00,
2013-01-02 00:55:00,13.0,8.0,30.01,WNW,288,1.0,21.0,80,0.00,,,0.00,Wunderground v.1.15,2013-01-02 05:55:00,
2013-01-02 01:00:00,13.1,8.1,30.01,WNW,282,1.0,1.0,80,0.00,,,0.00,Wunderground v.1.15,2013-01-02 06:00:00,
2013-01-02 01:05:00,13.1,7.8,30.02,WNW,282,0.0,21.0,79,0.00,,,0.00,Wunderground v.1.15,2013-01-02 06:05:00,
2013-01-02 01:14:00,12.7,7.4,30.02,WNW,303,0.0,21.0,79,0.00,,,0.00,Wunderground v.1.15,2013-01-02 06:14:00,
2013-01-02 01:19:00,12.5,7.5,30.02,WNW,303,0.0,21.0,80,0.00,,,0.00,Wunderground v.1.15,2013-01-02 06:19:00,
2013-01-02 01:24:00,12.4,7.4,30.02,WNW,303,0.0,21.0,80,0.00,,,0.00,Wunderground v.1.15,2013-01-02 06:24:00,
2013-01-02 01:30:00,12.3,7.6,30.03,WNW,303,0.0,21.0,81,0.00,,,0.00,Wunderground v.1.15,2013-01-02 06:30:00,
2013-01-02 01:35:00,12.3,7.6,30.03,WNW,303,0.0,21.0,81,0.00,,,0.00,Wunderground v.1.15,2013-01-02 06:35:00,
2013-01-02 01:40:00,12.3,7.9,30.03,WNW,299,1.0,21.0,82,0.00,,,0.00,Wunderground v.1.15,2013-01-02 06:40:00,
2013-01-02 01:49:00,12.6,7.9,30.04,WNW,288,1.0,21.0,81,0.00,,,0.00,Wunderground v.1.15,2013-01-02 06:49:00,
2013-01-02 01:54:00,12.6,7.9,30.04,WNW,300,1.0,21.0,81,0.00,,,0.00,Wunderground v.1.15,2013-01-02 06:54:00,
2013-01-02 01:59:00,12.7,8.0,30.04,NW,306,1.0,1.0,81,0.00,,,0.00,Wunderground v.1.15,2013-01-02 06:59:00,
2013-01-02 02:04:00,12.7,8.0,30.04,WNW,284,1.0,21.0,81,0.00,,,0.00,Wunderground v.1.15,2013-01-02 07:04:00,
2013-01-02 02:10:00,12.6,7.9,30.04,WNW,284,1.0,1.0,81,0.00,,,0.00,Wunderground v.1.15,2013-01-02 07:10:00,
2013-01-02 02:15:00,12.5,7.8,30.04,WNW,284,0.0,21.0,81,0.00,,,0.00,Wunderground v.1.15,2013-01-02 07:15:00,
2013-01-02 02:20:00,12.5,7.8,30.05,WNW,284,0.0,21.0,81,0.00,,,0.00,Wunderground v.1.15,2013-01-02 07:20:00,
2013-01-02 02:29:00,12.6,7.9,30.04,WNW,296,1.0,21.0,81,0.00,,,0.00,Wunderground v.1.15,2013-01-02 07:29:00,
2013-01-02 02:34:00,12.6,7.9,30.04,WNW,284,1.0,21.0,81,0.00,,,0.00,Wunderground v.1.15,2013-01-02 07:34:00,
2013-01-02 02:39:00,12.7,8.0,30.04,WNW,292,1.0,1.0,81,0.00,,,0.00,Wunderground v.1.15,2013-01-02 07:39:00,
2013-01-02 02:45:00,12.7,8.0,30.04,West,277,1.0,21.0,81,0.00,,,0.00,Wunderground v.1.15,2013-01-02 07:45:00,
2013-01-02 02:50:00,12.6,7.9,30.05,West,277,0.0,21.0,81,0.00,,,0.00,Wunderground v.1.15,2013-01-02 07:50:00,
2013-01-02 02:55:00,12.5,7.8,30.04,West,279,0.0,21.0,81,0.00,,,0.00,Wunderground v.1.15,2013-01-02 07:55:00,
2013-01-02 03:04:00,12.0,7.0,30.04,West,279,0.0,21.0,80,0.00,,,0.00,Wunderground v.1.15,2013-01-02 08:04:00,
2013-01-02 03:10:00,11.6,6.6,30.04,West,279,0.0,21.0,80,0.00,,,0.00,Wunderground v.1.15,2013-01-02 08:10:00,
2013-01-02 03:15:00,11.3,6.6,30.03,West,279,0.0,21.0,81,0.00,,,0.00,Wunderground v.1.15,2013-01-02 08:15:00,
2013-01-02 03:20:00,11.1,6.7,30.03,West,279,0.0,21.0,82,0.00,,,0.00,Wunderground v.1.15,2013-01-02 08:20:00,
2013-01-02 03:29:00,10.8,6.7,30.03,West,279,0.0,21.0,83,0.00,,,0.00,Wunderground v.1.15,2013-01-02 08:29:00,
2013-01-02 03:34:00,10.7,6.6,30.03,West,279,0.0,21.0,83,0.00,,,0.00,Wunderground v.1.15,2013-01-02 08:34:00,
2013-01-02 03:39:00,10.5,6.4,30.03,West,279,0.0,21.0,83,0.00,,,0.00,Wunderground v.1.15,2013-01-02 08:39:00,
2013-01-02 03:44:00,10.3,6.4,30.02,West,279,0.0,21.0,84,0.00,,,0.00,Wunderground v.1.15,2013-01-02 08:44:00,
2013-01-02 03:50:00,10.0,6.1,30.02,West,279,0.0,21.0,84,0.00,,,0.00,Wunderground v.1.15,2013-01-02 08:50:00,
2013-01-02 03:55:00,9.8,5.9,30.02,West,279,0.0,21.0,84,0.00,,,0.00,Wunderground v.1.15,2013-01-02 08:55:00,
2013-01-02 04:00:00,9.6,6.0,30.02,West,279,0.0,21.0,85,0.00,,,0.00,Wunderground v.1.15,2013-01-02 09:00:00,
2013-01-02 04:10:00,9.1,5.5,30.02,West,279,0.0,0.0,85,0.00,,,0.00,Wunderground v.1.15,2013-01-02 09:10:00,
2013-01-02 04:15:00,9.0,5.7,30.02,West,279,0.0,0.0,86,0.00,,,0.00,Wunderground v.1.15,2013-01-02 09:15:00,
2013-01-02 04:20:00,8.9,5.8,30.02,WNW,285,0.0,0.0,87,0.00,,,0.00,Wunderground v.1.15,2013-01-02 09:20:00,
2013-01-02 04:25:00,8.8,5.5,30.02,WNW,285,0.0,0.0,86,0.00,,,0.00,Wunderground v.1.15,2013-01-02 09:25:00,
2013-01-02 04:34:00,8.5,5.2,30.02,WNW,285,0.0,0.0,86,0.00,,,0.00,Wunderground v.1.15,2013-01-02 09:34:00,
2013-01-02 04:39:00,8.4,5.3,30.02,WNW,285,0.0,0.0,87,0.00,,,0.00,Wunderground v.1.15,2013-01-02 09:39:00,
2013-01-02 04:44:00,8.4,5.3,30.02,WNW,285,0.0,0.0,87,0.00,,,0.00,Wunderground v.1.15,2013-01-02 09:44:00,
2013-01-02 04:49:00,8.5,5.7,30.02,WNW,285,0.0,0.0,88,0.00,,,0.00,Wunderground v.1.15,2013-01-02 09:49:00,
2013-01-02 04:55:00,8.8,6.0,30.02,WNW,285,0.0,0.0,88,0.00,,,0.00,Wunderground v.1.15,2013-01-02 09:55:00,
2013-01-02 05:04:00,9.6,6.8,30.02,WNW,285,0.0,0.0,88,0.00,,,0.00,Wunderground v.1.15,2013-01-02 10:04:00,
2013-01-02 05:09:00,9.7,6.6,30.02,WNW,285,0.0,0.0,87,0.00,,,0.00,Wunderground v.1.15,2013-01-02 10:09:00,
2013-01-02 05:15:00,9.9,6.8,30.02,WNW,285,0.0,0.0,87,0.00,,,0.00,Wunderground v.1.15,2013-01-02 10:15:00,
2013-01-02 05:20:00,10.0,6.6,30.02,WNW,285,0.0,0.0,86,0.00,,,0.00,Wunderground v.1.15,2013-01-02 10:20:00,
2013-01-02 05:25:00,10.1,6.7,30.01,WNW,285,0.0,0.0,86,0.00,,,0.00,Wunderground v.1.15,2013-01-02 10:25:00,
2013-01-02 05:30:00,10.3,6.9,30.01,WNW,285,0.0,0.0,86,0.00,,,0.00,Wunderground v.1.15,2013-01-02 10:30:00,
2013-01-02 05:39:00,10.5,7.1,30.01,WNW,285,0.0,0.0,86,0.00,,,0.00,Wunderground v.1.15,2013-01-02 10:39:00,
2013-01-02 05:44:00,10.7,7.3,30.00,WNW,285,0.0,0.0,86,0.00,,,0.00,Wunderground v.1.15,2013-01-02 10:44:00,
2013-01-02 05:50:00,10.9,7.5,30.00,WNW,285,0.0,0.0,86,0.00,,,0.00,Wunderground v.1.15,2013-01-02 10:50:00,
2013-01-02 05:55:00,11.1,7.5,30.01,WNW,285,0.0,0.0,85,0.00,,,0.00,Wunderground v.1.15,2013-01-02 10:55:00,
2013-01-02 06:00:00,11.3,7.7,30.01,WNW,285,0.0,0.0,85,0.00,,,0.00,Wunderground v.1.15,2013-01-02 11:00:00,
2013-01-02 06:05:00,11.5,7.9,30.01,WNW,285,0.0,0.0,85,0.00,,,0.00,Wunderground v.1.15,2013-01-02 11:05:00,
2013-01-02 06:10:00,11.7,7.8,30.01,WNW,285,0.0,0.0,84,0.00,,,0.00,Wunderground v.1.15,2013-01-02 11:10:00,
2013-01-02 06:19:00,12.2,8.3,30.00,WNW,285,0.0,0.0,84,0.00,,,0.00,Wunderground v.1.15,2013-01-02 11:19:00,
2013-01-02 06:24:00,12.6,8.7,30.00,SW,229,0.0,0.0,84,0.00,,,0.00,Wunderground v.1.15,2013-01-02 11:24:00,
2013-01-02 06:30:00,13.0,8.8,30.00,SW,229,0.0,0.0,83,0.00,,,0.00,Wunderground v.1.15,2013-01-02 11:30:00,
2013-01-02 06:35:00,13.1,8.6,30.00,SW,229,0.0,0.0,82,0.00,,,0.00,Wunderground v.1.15,2013-01-02 11:35:00,
2013-01-02 06:40:00,13.3,8.8,30.00,SW,229,0.0,0.0,82,0.00,,,0.00,Wunderground v.1.15,2013-01-02 11:40:00,
2013-01-02 06:45:00,13.5,8.8,30.00,SW,229,0.0,0.0,81,0.00,,,0.00,Wunderground v.1.15,2013-01-02 11:45:00,
2013-01-02 06:50:00,13.6,8.9,30.00,SW,229,0.0,0.0,81,0.00,,,0.00,Wunderground v.1.15,2013-01-02 11:50:00,
2013-01-02 06:59:00,13.9,9.4,30.00,SW,229,0.0,0.0,82,0.00,,,0.00,Wunderground v.1.15,2013-01-02 11:59:00,
2013-01-02 07:05:00,14.0,9.5,30.00,SW,229,0.0,0.0,82,0.00,,,0.00,Wunderground v.1.15,2013-01-02 12:05:00,
2013-01-02 07:09:00,14.1,9.6,30.00,SW,229,0.0,0.0,82,0.00,,,0.00,Wunderground v.1.15,2013-01-02 12:09:00,
2013-01-02 07:15:00,14.1,9.3,30.01,SW,229,0.0,0.0,81,0.00,,,0.00,Wunderground v.1.15,2013-01-02 12:15:00,
2013-01-02 07:20:00,14.0,9.0,30.00,SW,229,0.0,0.0,80,0.00,,,0.00,Wunderground v.1.15,2013-01-02 12:20:00,
2013-01-02 07:25:00,14.0,9.2,30.01,SW,229,0.0,0.0,81,0.00,,,0.00,Wunderground v.1.15,2013-01-02 12:25:00,
2013-01-02 07:34:00,13.7,9.0,30.00,SW,229,0.0,0.0,81,0.00,,,0.00,Wunderground v.1.15,2013-01-02 12:34:00,
2013-01-02 07:39:00,13.6,9.1,30.00,SW,229,0.0,0.0,82,0.00,,,0.00,Wunderground v.1.15,2013-01-02 12:39:00,
2013-01-02 07:44:00,13.6,9.1,30.00,SW,229,0.0,0.0,82,0.00,,,0.00,Wunderground v.1.15,2013-01-02 12:44:00,
2013-01-02 07:50:00,13.6,9.1,30.00,SW,229,0.0,0.0,82,0.00,,,0.00,Wunderground v.1.15,2013-01-02 12:50:00,
2013-01-02 07:55:00,13.6,9.1,30.00,SW,229,0.0,0.0,82,0.00,,,0.00,Wunderground v.1.15,2013-01-02 12:55:00,
2013-01-02 08:00:00,13.9,9.4,30.00,SW,229,0.0,0.0,82,0.00,,,0.00,Wunderground v.1.15,2013-01-02 13:00:00,
2013-01-02 08:05:00,14.1,9.6,30.00,SW,229,0.0,0.0,82,0.00,,,0.00,Wunderground v.1.15,2013-01-02 13:05:00,
2013-01-02 08:14:00,14.7,10.2,30.00,SW,229,0.0,0.0,82,0.00,,,0.00,Wunderground v.1.15,2013-01-02 13:14:00,
2013-01-02 08:19:00,15.0,10.2,30.00,SW,229,0.0,0.0,81,0.00,,,0.00,Wunderground v.1.15,2013-01-02 13:19:00,
2013-01-02 08:24:00,15.3,10.5,30.01,WNW,287,0.0,0.0,81,0.00,,,0.00,Wunderground v.1.15,2013-01-02 13:24:00,
2013-01-02 08:30:00,16.3,11.2,30.01,WSW,257,1.0,3.0,80,0.00,,,0.00,Wunderground v.1.15,2013-01-02 13:30:00,
2013-01-02 08:35:00,17.9,11.9,30.00,WNW,292,2.0,3.0,77,0.00,,,0.00,Wunderground v.1.15,2013-01-02 13:35:00,
2013-01-02 08:40:00,18.7,12.1,30.01,WSW,253,3.0,5.0,75,0.00,,,0.00,Wunderground v.1.15,2013-01-02 13:40:00,
2013-01-02 08:49:00,19.9,12.3,30.01,WSW,248,4.0,6.0,72,0.00,,,0.00,Wunderground v.1.15,2013-01-02 13:49:00,
2013-01-02 08:54:00,20.3,12.4,30.01,SW,235,4.0,6.0,71,0.00,,,0.00,Wunderground v.1.15,2013-01-02 13:54:00,
2013-01-02 08:59:00,20.6,12.7,30.01,WNW,293,5.0,12.0,71,0.00,,,0.00,Wunderground v.1.15,2013-01-02 13:59:00,
2013-01-02 09:04:00,20.7,12.5,30.01,West,259,6.0,12.0,70,0.00,,,0.00,Wunderground v.1.15,2013-01-02 14:04:00,
2013-01-02 09:10:00,21.1,12.8,30.01,West,277,7.0,11.0,70,0.00,,,0.00,Wunderground v.1.15,2013-01-02 14:10:00,
2013-01-02 09:15:00,21.3,13.0,30.01,SW,217,6.0,11.0,70,0.00,,,0.00,Wunderground v.1.15,2013-01-02 14:15:00,
2013-01-02 09:20:00,21.5,12.9,30.01,West,277,5.0,11.0,69,0.00,,,0.00,Wunderground v.1.15,2013-01-02 14:20:00,
2013-01-02 09:29:00,21.8,12.9,30.02,West,259,6.0,6.0,68,0.00,,,0.00,Wunderground v.1.15,2013-01-02 14:29:00,
2013-01-02 09:34:00,22.3,13.7,30.02,SSE,166,6.0,6.0,69,0.00,,,0.00,Wunderground v.1.15,2013-01-02 14:34:00,
2013-01-02 09:39:00,22.7,13.7,30.02,SW,223,4.0,5.0,68,0.00,,,0.00,Wunderground v.1.15,2013-01-02 14:39:00,
2013-01-02 09:45:00,22.8,13.5,30.02,WSW,246,4.0,5.0,67,0.00,,,0.00,Wunderground v.1.15,2013-01-02 14:45:00,
2013-01-02 09:50:00,23.2,13.9,30.02,West,276,4.0,8.0,67,0.00,,,0.00,Wunderground v.1.15,2013-01-02 14:50:00,
2013-01-02 09:55:00,23.7,14.0,30.02,West,264,4.0,8.0,66,0.00,,,0.00,Wunderground v.1.15,2013-01-02 14:55:00,
2013-01-02 10:00:00,23.9,14.2,30.02,West,263,5.0,5.0,66,0.00,,,0.00,Wunderground v.1.15,2013-01-02 15:00:00,
2013-01-02 10:05:00,24.0,13.9,30.03,WSW,250,4.0,5.0,65,0.00,,,0.00,Wunderground v.1.15,2013-01-02 15:05:00,
2013-01-02 10:14:00,24.0,13.9,30.03,West,273,5.0,5.0,65,0.00,,,0.00,Wunderground v.1.15,2013-01-02 15:14:00,
2013-01-02 10:19:00,24.3,14.2,30.03,WNW,289,4.0,4.0,65,0.00,,,0.00,Wunderground v.1.15,2013-01-02 15:19:00,
2013-01-02 10:25:00,24.5,14.1,30.03,WNW,286,4.0,9.0,64,0.00,,,0.00,Wunderground v.1.15,2013-01-02 15:25:00,
2013-01-02 10:30:00,24.8,14.3,30.03,WSW,247,6.0,6.0,64,0.00,,,0.00,Wunderground v.1.15,2013-01-02 15:30:00,
2013-01-02 10:39:00,25.1,15.0,30.03,WNW,300,4.0,6.0,65,0.00,,,0.00,Wunderground v.1.15,2013-01-02 15:39:00,
2013-01-02 10:44:00,25.1,14.6,30.03,West,271,6.0,10.0,64,0.00,,,0.00,Wunderground v.1.15,2013-01-02 15:44:00,
2013-01-02 10:50:00,24.9,14.4,30.03,West,267,7.0,7.0,64,0.00,,,0.00,Wunderground v.1.15,2013-01-02 15:50:00,
2013-01-02 10:55:00,24.9,15.1,30.03,WNW,296,6.0,7.0,66,0.00,,,0.00,Wunderground v.1.15,2013-01-02 15:55:00,
2013-01-02 11:00:00,25.1,15.0,30.03,WNW,288,6.0,6.0,65,0.00,,,0.00,Wunderground v.1.15,2013-01-02 16:00:00,
2013-01-02 11:09:00,25.1,15.3,30.03,West,280,5.0,5.0,66,0.00,,,0.00,Wunderground v.1.15,2013-01-02 16:09:00,
2013-01-02 11:14:00,25.2,15.8,30.03,WNW,295,4.0,6.0,67,0.00,,,0.00,Wunderground v.1.15,2013-01-02 16:14:00,
2013-01-02 11:19:00,25.4,16.0,30.03,WNW,283,4.0,4.0,67,0.00,,,0.00,Wunderground v.1.15,2013-01-02 16:19:00,
2013-01-02 11:24:00,25.5,16.1,30.03,West,273,4.0,4.0,67,0.00,,,0.00,Wunderground v.1.15,2013-01-02 16:24:00,
2013-01-02 11:30:00,25.6,16.2,30.03,NW,309,4.0,4.0,67,0.00,,,0.00,Wunderground v.1.15,2013-01-02 16:30:00,
2013-01-02 11:35:00,26.0,16.5,30.03,WSW,254,4.0,5.0,67,0.00,,,0.00,Wunderground v.1.15,2013-01-02 16:35:00,
2013-01-02 11:40:00,25.9,16.1,30.03,WSW,258,5.0,15.0,66,0.00,,,0.00,Wunderground v.1.15,2013-01-02 16:40:00,
2013-01-02 11:49:00,25.6,16.2,30.02,West,281,8.0,8.0,67,0.00,,,0.00,Wunderground v.1.15,2013-01-02 16:49:00,
2013-01-02 11:54:00,25.8,16.3,30.02,WNW,296,6.0,15.0,67,0.00,,,0.00,Wunderground v.1.15,2013-01-02 16:54:00,
2013-01-02 11:59:00,25.8,16.3,30.02,West,279,5.0,15.0,67,0.00,,,0.00,Wunderground v.1.15,2013-01-02 16:59:00,
2013-01-02 12:05:00,25.8,16.3,30.03,WNW,282,5.0,15.0,67,0.00,,,0.00,Wunderground v.1.15,2013-01-02 17:05:00,
2013-01-02 12:10:00,25.6,16.2,30.03,West,279,6.0,15.0,67,0.00,,,0.00,Wunderground v.1.15,2013-01-02 17:10:00,
2013-01-02 12:15:00,25.7,16.6,30.02,WNW,295,6.0,15.0,68,0.00,,,0.00,Wunderground v.1.15,2013-01-02 17:15:00,
2013-01-02 12:20:00,25.9,16.4,30.02,West,266,5.0,15.0,67,0.00,,,0.00,Wunderground v.1.15,2013-01-02 17:20:00,
2013-01-02 12:25:00,25.7,16.3,30.02,WNW,284,7.0,15.0,67,0.00,,,0.00,Wunderground v.1.15,2013-01-02 17:25:00,
2013-01-02 12:34:00,25.6,16.5,30.02,NNW,329,7.0,15.0,68,0.00,,,0.00,Wunderground v.1.15,2013-01-02 17:34:00,
2013-01-02 12:40:00,25.6,16.5,30.02,WNW,291,7.0,7.0,68,0.00,,,0.00,Wunderground v.1.15,2013-01-02 17:40:00,
2013-01-02 12:45:00,25.5,16.4,30.02,WNW,285,6.0,15.0,68,0.00,,,0.00,Wunderground v.1.15,2013-01-02 17:45:00,
2013-01-02 12:50:00,25.4,16.3,30.02,WNW,285,6.0,15.0,68,0.00,,,0.00,Wunderground v.1.15,2013-01-02 17:50:00,
2013-01-02 13:00:00,25.2,16.8,30.02,WNW,286,8.0,8.0,70,0.00,,,0.00,Wunderground v.1.15,2013-01-02 18:00:00,
2013-01-02 13:09:00,24.9,16.8,30.03,WNW,290,7.0,15.0,71,0.00,,,0.00,Wunderground v.1.15,2013-01-02 18:09:00,
2013-01-02 13:14:00,24.8,16.7,30.03,WNW,296,7.0,15.0,71,0.00,,,0.00,Wunderground v.1.15,2013-01-02 18:14:00,
2013-01-02 13:20:00,24.7,16.6,30.04,West,281,6.0,15.0,71,0.00,,,0.00,Wunderground v.1.15,2013-01-02 18:20:00,
2013-01-02 13:25:00,24.6,16.9,30.04,WNW,299,6.0,15.0,72,0.00,,,0.00,Wunderground v.1.15,2013-01-02 18:25:00,
2013-01-02 13:30:00,24.6,16.9,30.04,WNW,291,6.0,6.0,72,0.00,,,0.00,Wunderground v.1.15,2013-01-02 18:30:00,
2013-01-02 13:35:00,24.7,17.3,30.04,West,274,4.0,15.0,73,0.00,,,0.00,Wunderground v.1.15,2013-01-02 18:35:00,
2013-01-02 13:44:00,24.8,17.1,30.04,WNW,302,6.0,15.0,72,0.00,,,0.00,Wunderground v.1.15,2013-01-02 18:44:00,
2013-01-02 13:49:00,24.9,17.1,30.04,WNW,290,5.0,15.0,72,0.00,,,0.00,Wunderground v.1.15,2013-01-02 18:49:00,
2013-01-02 13:55:00,24.9,16.8,30.04,WNW,292,5.0,15.0,71,0.00,,,0.00,Wunderground v.1.15,2013-01-02 18:55:00,
2013-01-02 14:00:00,24.8,17.1,30.05,NW,306,7.0,7.0,72,0.00,,,0.00,Wunderground v.1.15,2013-01-02 19:00:00,
2013-01-02 14:05:00,24.8,17.1,30.05,NNW,331,7.0,15.0,72,0.00,,,0.00,Wunderground v.1.15,2013-01-02 19:05:00,
2013-01-02 14:10:00,24.9,17.5,30.05,WNW,285,5.0,5.0,73,0.00,,,0.00,Wunderground v.1.15,2013-01-02 19:10:00,
2013-01-02 14:19:00,24.9,17.1,30.05,West,263,4.0,15.0,72,0.00,,,0.00,Wunderground v.1.15,2013-01-02 19:19:00,
2013-01-02 14:24:00,24.9,17.1,30.05,SSW,210,7.0,15.0,72,0.00,,,0.00,Wunderground v.1.15,2013-01-02 19:24:00,
2013-01-02 14:30:00,24.8,17.4,30.05,West,260,7.0,7.0,73,0.00,,,0.00,Wunderground v.1.15,2013-01-02 19:30:00,
2013-01-02 14:35:00,24.8,17.4,30.06,WNW,298,5.0,15.0,73,0.00,,,0.00,Wunderground v.1.15,2013-01-02 19:35:00,
2013-01-02 14:40:00,24.7,17.3,30.06,West,269,6.0,6.0,73,0.00,,,0.00,Wunderground v.1.15,2013-01-02 19:40:00,
2013-01-02 14:45:00,24.7,17.3,30.07,WNW,292,6.0,9.0,73,0.00,,,0.00,Wunderground v.1.15,2013-01-02 19:45:00,
2013-01-02 14:54:00,24.7,17.3,30.07,NW,311,6.0,15.0,73,0.00,,,0.00,Wunderground v.1.15,2013-01-02 19:54:00,
2013-01-02 14:59:00,24.7,17.3,30.07,NW,304,6.0,6.0,73,0.00,,,0.00,Wunderground v.1.15,2013-01-02 19:59:00,
2013-01-02 15:05:00,24.8,17.7,30.08,WNW,299,4.0,15.0,74,0.00,,,0.00,Wunderground v.1.15,2013-01-02 20:05:00,
2013-01-02 15:10:00,24.8,17.7,30.08,WNW,283,2.0,2.0,74,0.00,,,0.00,Wunderground v.1.15,2013-01-02 20:10:00,
2013-01-02 15:15:00,24.9,17.8,30.08,WNW,300,3.0,8.0,74,0.00,,,0.00,Wunderground v.1.15,2013-01-02 20:15:00,
2013-01-02 15:20:00,24.8,17.1,30.08,West,271,4.0,15.0,72,0.00,,,0.00,Wunderground v.1.15,2013-01-02 20:20:00,
2013-01-02 15:29:00,24.8,17.1,30.09,West,279,4.0,15.0,72,0.00,,,0.00,Wunderground v.1.15,2013-01-02 20:29:00,
2013-01-02 15:34:00,24.8,17.1,30.09,WNW,295,4.0,15.0,72,0.00,,,0.00,Wunderground v.1.15,2013-01-02 20:34:00,
2013-01-02 15:40:00,24.8,17.1,30.09,NW,310,6.0,6.0,72,0.00,,,0.00,Wunderground v.1.15,2013-01-02 20:40:00,
2013-01-02 15:45:00,24.7,17.0,30.09,NW,306,6.0,15.0,72,0.00,,,0.00,Wunderground v.1.15,2013-01-02 20:45:00,
2013-01-02 15:50:00,24.7,17.0,30.10,West,277,6.0,15.0,72,0.00,,,0.00,Wunderground v.1.15,2013-01-02 20:50:00,
2013-01-02 15:55:00,24.6,17.2,30.10,WNW,288,6.0,15.0,73,0.00,,,0.00,Wunderground v.1.15,2013-01-02 20:55:00,
2013-01-02 16:04:00,24.4,17.0,30.10,WNW,286,5.0,15.0,73,0.00,,,0.00,Wunderground v.1.15,2013-01-02 21:04:00,
2013-01-02 16:09:00,24.3,17.2,30.10,NW,321,5.0,5.0,74,0.00,,,0.00,Wunderground v.1.15,2013-01-02 21:09:00,
2013-01-02 16:15:00,24.1,17.6,30.10,WNW,285,4.0,15.0,76,0.00,,,0.00,Wunderground v.1.15,2013-01-02 21:15:00,
2013-01-02 16:20:00,23.9,18.0,30.10,NNW,329,3.0,3.0,78,0.00,,,0.00,Wunderground v.1.15,2013-01-02 21:20:00,
2013-01-02 16:25:00,23.6,18.0,30.10,NW,321,3.0,15.0,79,0.00,,,0.00,Wunderground v.1.15,2013-01-02 21:25:00,
2013-01-02 16:30:00,23.4,18.1,30.10,NW,315,3.0,3.0,80,0.00,,,0.00,Wunderground v.1.15,2013-01-02 21:30:00,
2013-01-02 16:39:00,23.0,18.0,30.10,NNW,345,3.0,15.0,81,0.00,,,0.00,Wunderground v.1.15,2013-01-02 21:39:00,
2013-01-02 16:44:00,22.8,18.1,30.11,North,355,3.0,15.0,82,0.00,,,0.00,Wunderground v.1.15,2013-01-02 21:44:00,
2013-01-02 16:50:00,22.6,17.9,30.11,North,9,3.0,15.0,82,0.00,,,0.00,Wunderground v.1.15,2013-01-02 21:50:00,
2013-01-02 16:55:00,22.4,17.7,30.11,NNW,329,2.0,15.0,82,0.00,,,0.00,Wunderground v.1.15,2013-01-02 21:55:00,
2013-01-02 17:00:00,22.2,17.5,30.12,NNW,331,3.0,3.0,82,0.00,,,0.00,Wunderground v.1.15,2013-01-02 22:00:00,
2013-01-02 17:05:00,22.0,17.3,30.12,NW,311,3.0,15.0,82,0.00,,,0.00,Wunderground v.1.15,2013-01-02 22:05:00,
2013-01-02 17:10:00,21.9,17.2,30.12,NNW,327,3.0,15.0,82,0.00,,,0.00,Wunderground v.1.15,2013-01-02 22:10:00,
2013-01-02 17:19:00,21.7,17.1,30.12,WNW,288,2.0,2.0,82,0.00,,,0.00,Wunderground v.1.15,2013-01-02 22:19:00,
2013-01-02 17:24:00,21.6,17.0,30.12,NW,310,3.0,3.0,82,0.00,,,0.00,Wunderground v.1.15,2013-01-02 22:24:00,
2013-01-02 17:30:00,21.6,16.7,30.12,WNW,290,3.0,15.0,81,0.00,,,0.00,Wunderground v.1.15,2013-01-02 22:30:00,
2013-01-02 17:35:00,21.5,16.6,30.13,NW,306,4.0,15.0,81,0.00,,,0.00,Wunderground v.1.15,2013-01-02 22:35:00,
2013-01-02 17:40:00,21.4,16.5,30.13,WNW,296,3.0,15.0,81,0.00,,,0.00,Wunderground v.1.15,2013-01-02 22:40:00,
2013-01-02 17:45:00,21.3,16.1,30.13,NNW,331,3.0,15.0,80,0.00,,,0.00,Wunderground v.1.15,2013-01-02 22:45:00,
2013-01-02 17:54:00,21.1,15.9,30.13,NW,325,2.0,15.0,80,0.00,,,0.00,Wunderground v.1.15,2013-01-02 22:54:00,
2013-01-02 17:59:00,20.8,15.6,30.13,NNW,342,2.0,2.0,80,0.00,,,0.00,Wunderground v.1.15,2013-01-02 22:59:00,
2013-01-02 18:05:00,20.7,15.2,30.13,WNW,298,2.0,15.0,79,0.00,,,0.00,Wunderground v.1.15,2013-01-02 23:05:00,
2013-01-02 18:10:00,20.5,15.0,30.14,NNW,332,2.0,2.0,79,0.00,,,0.00,Wunderground v.1.15,2013-01-02 23:10:00,
2013-01-02 18:15:00,20.2,14.7,30.14,NNW,332,2.0,4.0,79,0.00,,,0.00,Wunderground v.1.15,2013-01-02 23:15:00,
2013-01-02 18:20:00,20.1,14.6,30.14,NNW,330,2.0,2.0,79,0.00,,,0.00,Wunderground v.1.15,2013-01-02 23:20:00,
2013-01-02 18:29:00,19.8,14.3,30.15,WNW,302,4.0,15.0,79,0.00,,,0.00,Wunderground v.1.15,2013-01-02 23:29:00,
2013-01-02 18:34:00,19.6,14.1,30.15,NW,307,2.0,15.0,79,0.00,,,0.00,Wunderground v.1.15,2013-01-02 23:34:00,
2013-01-02 18:40:00,19.4,13.9,30.15,NW,304,1.0,15.0,79,0.00,,,0.00,Wunderground v.1.15,2013-01-02 23:40:00,
2013-01-02 18:45:00,19.2,13.8,30.15,WNW,300,1.0,15.0,79,0.00,,,0.00,Wunderground v.1.15,2013-01-02 23:45:00,
2013-01-02 18:50:00,18.9,13.5,30.15,NNW,333,2.0,2.0,79,0.00,,,0.00,Wunderground v.1.15,2013-01-02 23:50:00,
2013-01-02 18:55:00,18.7,13.3,30.15,WNW,299,2.0,15.0,79,0.00,,,0.00,Wunderground v.1.15,2013-01-02 23:55:00,
2013-01-02 19:04:00,18.4,13.3,30.15,WNW,301,2.0,15.0,80,0.00,,,0.00,Wunderground v.1.15,2013-01-03 00:04:00,
2013-01-02 19:09:00,18.3,12.9,30.15,WNW,286,3.0,3.0,79,0.00,,,0.00,Wunderground v.1.15,2013-01-03 00:09:00,
2013-01-02 19:15:00,18.1,12.7,30.15,NW,307,3.0,5.0,79,0.00,,,0.00,Wunderground v.1.15,2013-01-03 00:15:00,
2013-01-02 19:20:00,18.1,12.4,30.15,WNW,299,5.0,15.0,78,0.00,,,0.00,Wunderground v.1.15,2013-01-03 00:20:00,
2013-01-02 19:25:00,18.1,12.1,30.15,West,261,6.0,15.0,77,0.00,,,0.00,Wunderground v.1.15,2013-01-03 00:25:00,
2013-01-02 19:30:00,18.1,12.1,30.15,WNW,284,6.0,15.0,77,0.00,,,0.00,Wunderground v.1.15,2013-01-03 00:30:00,
2013-01-02 19:39:00,17.9,11.6,30.16,WNW,288,5.0,15.0,76,0.00,,,0.00,Wunderground v.1.15,2013-01-03 00:39:00,
2013-01-02 19:44:00,17.8,11.2,30.16,NW,305,5.0,15.0,75,0.00,,,0.00,Wunderground v.1.15,2013-01-03 00:44:00,
2013-01-02 19:49:00,17.6,11.3,30.16,West,279,4.0,15.0,76,0.00,,,0.00,Wunderground v.1.15,2013-01-03 00:49:00,
2013-01-02 19:55:00,17.5,11.2,30.16,West,277,4.0,15.0,76,0.00,,,0.00,Wunderground v.1.15,2013-01-03 00:55:00,
2013-01-02 20:00:00,17.3,11.0,30.16,NW,309,3.0,3.0,76,0.00,,,0.00,Wunderground v.1.15,2013-01-03 01:00:00,
2013-01-02 20:05:00,16.9,10.6,30.16,NW,319,2.0,15.0,76,0.00,,,0.00,Wunderground v.1.15,2013-01-03 01:05:00,
2013-01-02 20:10:00,16.4,10.2,30.16,North,355,2.0,15.0,76,0.00,,,0.00,Wunderground v.1.15,2013-01-03 01:10:00,
2013-01-02 20:19:00,15.6,9.4,30.16,NNW,328,2.0,15.0,76,0.00,,,0.00,Wunderground v.1.15,2013-01-03 01:19:00,
2013-01-02 20:24:00,15.2,9.0,30.16,NW,323,2.0,15.0,76,0.00,,,0.00,Wunderground v.1.15,2013-01-03 01:24:00,
2013-01-02 20:30:00,14.9,8.7,30.16,NNW,331,2.0,15.0,76,0.00,,,0.00,Wunderground v.1.15,2013-01-03 01:30:00,
2013-01-02 20:35:00,14.6,8.7,30.16,WNW,296,2.0,15.0,77,0.00,,,0.00,Wunderground v.1.15,2013-01-03 01:35:00,
2013-01-02 20:40:00,14.4,8.5,30.16,WNW,302,2.0,2.0,77,0.00,,,0.00,Wunderground v.1.15,2013-01-03 01:40:00,
2013-01-02 20:45:00,14.2,8.3,30.17,NW,307,2.0,15.0,77,0.00,,,0.00,Wunderground v.1.15,2013-01-03 01:45:00,
2013-01-02 20:50:00,14.0,8.1,30.17,NW,315,2.0,2.0,77,0.00,,,0.00,Wunderground v.1.15,2013-01-03 01:50:00,
2013-01-02 20:59:00,13.8,7.9,30.17,NNW,329,3.0,3.0,77,0.00,,,0.00,Wunderground v.1.15,2013-01-03 01:59:00,
2013-01-02 21:04:00,13.7,7.8,30.17,WNW,297,3.0,4.0,77,0.00,,,0.00,Wunderground v.1.15,2013-01-03 02:04:00,
2013-01-02 21:09:00,13.6,7.7,30.17,WNW,296,3.0,15.0,77,0.00,,,0.00,Wunderground v.1.15,2013-01-03 02:09:00,
2013-01-02 21:15:00,13.4,7.2,30.18,WNW,292,3.0,15.0,76,0.00,,,0.00,Wunderground v.1.15,2013-01-03 02:15:00,
2013-01-02 21:20:00,13.3,7.1,30.18,NW,324,2.0,2.0,76,0.00,,,0.00,Wunderground v.1.15,2013-01-03 02:20:00,
2013-01-02 21:25:00,13.1,7.0,30.18,NNW,333,1.0,3.0,76,0.00,,,0.00,Wunderground v.1.15,2013-01-03 02:25:00,
2013-01-02 21:34:00,12.8,6.7,30.18,NNW,346,3.0,15.0,76,0.00,,,0.00,Wunderground v.1.15,2013-01-03 02:34:00,
2013-01-02 21:40:00,12.7,6.3,30.19,North,360,2.0,15.0,75,0.00,,,0.00,Wunderground v.1.15,2013-01-03 02:40:00,
2013-01-02 21:45:00,12.6,5.9,30.19,North,351,2.0,15.0,74,0.00,,,0.00,Wunderground v.1.15,2013-01-03 02:45:00,
2013-01-02 21:50:00,12.4,4.8,30.19,NNW,343,3.0,3.0,71,0.00,,,0.00,Wunderground v.1.15,2013-01-03 02:50:00,
2013-01-02 21:55:00,12.2,4.3,30.20,NNW,346,2.0,15.0,70,0.00,,,0.00,Wunderground v.1.15,2013-01-03 02:55:00,
2013-01-02 22:00:00,12.0,4.1,30.19,NNW,340,2.0,15.0,70,0.00,,,0.00,Wunderground v.1.15,2013-01-03 03:00:00,
2013-01-02 22:09:00,11.5,2.7,30.20,North,5,3.0,3.0,67,0.00,,,0.00,Wunderground v.1.15,2013-01-03 03:09:00,
2013-01-02 22:14:00,11.2,2.4,30.20,North,355,2.0,15.0,67,0.00,,,0.00,Wunderground v.1.15,2013-01-03 03:14:00,
2013-01-02 22:19:00,10.9,1.4,30.21,North,350,1.0,15.0,65,0.00,,,0.00,Wunderground v.1.15,2013-01-03 03:19:00,
2013-01-02 22:25:00,10.7,0.6,30.21,North,355,2.0,15.0,63,0.00,,,0.00,Wunderground v.1.15,2013-01-03 03:25:00,
2013-01-02 22:30:00,10.7,0.6,30.21,NNE,22,3.0,15.0,63,0.00,,,0.00,Wunderground v.1.15,2013-01-03 03:30:00,
2013-01-02 22:45:00,9.5,2.0,30.22,NE,53,3.0,15.0,71,0.00,,,0.00,Wunderground v.1.15,2013-01-03 03:45:00,
2013-01-02 22:50:00,8.8,2.2,30.22,NE,46,3.0,15.0,74,0.00,,,0.00,Wunderground v.1.15,2013-01-03 03:50:00,
2013-01-02 22:55:00,8.2,1.9,30.22,NE,37,3.0,15.0,75,0.00,,,0.00,Wunderground v.1.15,2013-01-03 03:55:00,
2013-01-02 23:00:00,7.7,2.0,30.22,NE,36,3.0,3.0,77,0.00,,,0.00,Wunderground v.1.15,2013-01-03 04:00:00,
2013-01-02 23:05:00,7.3,1.9,30.23,NNE,24,3.0,15.0,78,0.00,,,0.00,Wunderground v.1.15,2013-01-03 04:05:00,
2013-01-02 23:14:00,6.7,1.6,30.23,ENE,67,2.0,3.0,79,0.00,,,0.00,Wunderground v.1.15,2013-01-03 04:14:00,
2013-01-02 23:19:00,6.3,1.4,30.23,NNE,24,2.0,2.0,80,0.00,,,0.00,Wunderground v.1.15,2013-01-03 04:19:00,
2013-01-02 23:25:00,6.0,1.4,30.24,ENE,65,2.0,7.0,81,0.00,,,0.00,Wunderground v.1.15,2013-01-03 04:25:00,
2013-01-02 23:30:00,5.8,1.2,30.24,NNE,26,3.0,3.0,81,0.00,,,0.00,Wunderground v.1.15,2013-01-03 04:30:00,
2013-01-02 23:35:00,5.7,1.4,30.24,NNE,26,3.0,4.0,82,0.00,,,0.00,Wunderground v.1.15,2013-01-03 04:35:00,
2013-01-02 23:40:00,5.5,1.2,30.25,NE,43,3.0,15.0,82,0.00,,,0.00,Wunderground v.1.15,2013-01-03 04:40:00,
2013-01-02 23:45:00,5.3,1.0,30.25,NNE,32,3.0,15.0,82,0.00,,,0.00,Wunderground v.1.15,2013-01-03 04:45:00,
2013-01-02 23:54:00,4.9,0.6,30.25,NE,51,4.0,15.0,82,0.00,,,0.00,Wunderground v.1.15,2013-01-03 04:54:00,
2013-01-02 23:59:00,4.7,0.7,30.25,NNE,23,3.0,15.0,83,0.00,,,0.00,Wunderground v.1.15,2013-01-03 04:59:00,